Time;durP1;ratioP1;P1;durP2;ratioP2;P2;SDS_P1;SDS_P2;PMS_P1;PMS_P2;Temp;Humidity;BMP_temperature;BMP_pressure;BME280_temperature;BME280_humidity;BME280_pressure;Samples;Min_cycle;Max_cycle;Signal;HPM_P1;HPM_P2
2023/03/29 00:00:18;;;;;;;4.40;3.30;;;6.10;99.90;;;;;;5014073;28;20183;-69
2023/03/29 00:02:47;;;;;;;4.90;2.73;;;6.20;99.90;;;;;;5014777;28;21020;-69
2023/03/29 00:05:14;;;;;;;5.67;4.10;;;6.30;99.90;;;;;;5013054;28;20636;-69
2023/03/29 00:07:40;;;;;;;3.57;3.17;;;6.40;99.90;;;;;;5012943;28;20966;-70
2023/03/29 00:10:09;;;;;;;4.43;2.90;;;6.30;99.90;;;;;;5014075;28;20472;-69
2023/03/29 00:12:36;;;;;;;3.93;3.30;;;6.20;99.90;;;;;;5014736;28;20190;-69
2023/03/29 00:15:03;;;;;;;4.40;3.83;;;6.20;99.90;;;;;;5014538;28;20449;-69
2023/03/29 00:17:29;;;;;;;3.57;3.20;;;6.20;99.90;;;;;;5013986;28;20844;-69
2023/03/29 00:19:55;;;;;;;3.17;2.87;;;6.20;99.90;;;;;;5013123;28;20461;-69
2023/03/29 00:22:21;;;;;;;4.07;3.47;;;6.20;99.90;;;;;;5014232;28;20429;-69
2023/03/29 00:24:47;;;;;;;7.20;3.53;;;6.20;99.90;;;;;;5014530;28;20661;-69
2023/03/29 00:27:15;;;;;;;3.63;3.10;;;6.20;99.90;;;;;;5013742;28;20632;-69
2023/03/29 00:29:40;;;;;;;4.00;3.40;;;6.10;99.90;;;;;;5013705;28;20464;-69
2023/03/29 00:32:06;;;;;;;4.03;3.10;;;6.00;99.90;;;;;;5014137;28;20441;-69
2023/03/29 00:34:31;;;;;;;3.90;3.40;;;5.90;99.90;;;;;;5013144;28;20194;-69
2023/03/29 00:36:57;;;;;;;3.60;3.30;;;5.90;99.90;;;;;;5014043;28;20214;-69
2023/03/29 00:39:24;;;;;;;4.10;3.80;;;5.80;99.90;;;;;;5012931;28;20293;-69
2023/03/29 00:41:51;;;;;;;4.50;3.93;;;5.80;99.90;;;;;;5013150;28;20187;-69
2023/03/29 00:45:13;;;;;;;3.70;3.40;;;5.80;99.90;;;;;;5014315;28;20437;-69
2023/03/29 00:47:45;;;;;;;3.93;3.63;;;5.70;99.90;;;;;;4932350;29;20541;-69
2023/03/29 00:50:15;;;;;;;3.23;2.80;;;5.70;99.90;;;;;;4945102;29;20508;-69
2023/03/29 00:52:42;;;;;;;3.50;3.20;;;5.70;99.90;;;;;;4986638;28;20959;-69
2023/03/29 00:55:14;;;;;;;4.07;3.00;;;5.80;99.90;;;;;;5013862;28;20449;-69
2023/03/29 00:57:45;;;;;;;4.20;3.80;;;5.80;99.90;;;;;;5013091;28;20473;-69
2023/03/29 01:00:13;;;;;;;4.20;3.90;;;5.80;99.90;;;;;;5012482;28;20449;-69
2023/03/29 01:02:42;;;;;;;5.40;3.83;;;5.80;99.90;;;;;;5013482;28;20438;-69
2023/03/29 01:05:16;;;;;;;4.20;3.70;;;5.80;99.90;;;;;;5013156;28;20449;-69
2023/03/29 01:08:31;;;;;;;3.67;3.40;;;5.90;99.90;;;;;;5013104;28;20927;-69
2023/03/29 01:11:06;;;;;;;5.03;4.33;;;5.90;99.90;;;;;;4997663;28;20567;-69
2023/03/29 01:13:43;;;;;;;6.90;4.60;;;5.90;99.90;;;;;;5013642;28;20446;-69
2023/03/29 01:16:11;;;;;;;6.33;4.30;;;6.00;99.90;;;;;;5011417;28;20805;-69
2023/03/29 01:18:37;;;;;;;6.63;4.87;;;6.00;99.90;;;;;;5011631;28;20465;-69
2023/03/29 01:21:22;;;;;;;4.97;3.90;;;6.00;99.90;;;;;;5012482;28;20437;-69
2023/03/29 01:23:49;;;;;;;3.57;3.23;;;6.10;99.90;;;;;;5013559;28;20183;-69
2023/03/29 01:26:26;;;;;;;5.53;4.57;;;6.10;99.90;;;;;;5013129;28;20429;-69
2023/03/29 01:29:00;;;;;;;5.03;3.43;;;6.10;99.90;;;;;;5008311;28;20498;-69
2023/03/29 01:31:35;;;;;;;3.83;3.23;;;6.10;99.90;;;;;;5009874;28;20805;-70
2023/03/29 01:34:09;;;;;;;4.80;3.20;;;6.00;99.90;;;;;;5009311;28;20958;-69
2023/03/29 01:37:23;;;;;;;4.17;3.40;;;6.00;99.90;;;;;;5012482;28;20436;-68
2023/03/29 01:39:50;;;;;;;4.70;3.63;;;6.00;99.90;;;;;;5000057;28;20462;-69
2023/03/29 01:42:53;;;;;;;4.27;3.60;;;6.00;99.90;;;;;;5008880;28;20427;-69
2023/03/29 01:45:35;;;;;;;4.17;3.77;;;6.00;99.90;;;;;;5011771;28;20429;-69
2023/03/29 01:48:13;;;;;;;4.57;4.17;;;5.90;99.90;;;;;;5011435;28;20453;-69
2023/03/29 01:50:46;;;;;;;3.77;3.37;;;5.80;99.90;;;;;;5012081;28;20425;-69
2023/03/29 01:53:27;;;;;;;4.33;3.17;;;5.80;99.90;;;;;;5012878;28;20953;-69
2023/03/29 01:55:56;;;;;;;3.50;3.20;;;5.80;99.90;;;;;;5009736;28;20984;-69
2023/03/29 01:58:27;;;;;;;5.40;4.30;;;5.80;99.90;;;;;;5012597;28;20468;-69
2023/03/29 02:00:54;;;;;;;3.77;3.47;;;5.80;99.90;;;;;;5013749;28;20429;-69
2023/03/29 02:03:23;;;;;;;4.33;3.50;;;5.80;99.90;;;;;;5013530;28;20449;-69
2023/03/29 02:05:50;;;;;;;5.07;3.80;;;5.80;99.90;;;;;;5013285;28;20425;-69
2023/03/29 02:08:17;;;;;;;6.47;4.40;;;5.80;99.90;;;;;;5012425;28;20457;-69
2023/03/29 02:10:43;;;;;;;4.90;4.40;;;5.80;99.90;;;;;;5012663;28;20445;-69
2023/03/29 02:13:09;;;;;;;5.10;4.60;;;5.70;99.90;;;;;;5013422;28;20421;-69
2023/03/29 02:15:34;;;;;;;5.40;3.90;;;5.70;99.90;;;;;;5012932;28;20437;-69
2023/03/29 02:18:00;;;;;;;4.10;3.50;;;5.70;99.90;;;;;;5012809;28;20289;-69
2023/03/29 02:20:30;;;;;;;3.67;3.37;;;5.70;99.90;;;;;;5012614;28;20178;-69
2023/03/29 02:23:33;;;;;;;7.97;3.80;;;5.70;99.90;;;;;;5013087;28;20286;-69
2023/03/29 02:25:59;;;;;;;4.33;3.20;;;5.70;99.90;;;;;;5001098;28;20446;-69
2023/03/29 02:28:26;;;;;;;3.47;3.17;;;5.60;99.90;;;;;;5012679;28;20457;-69
2023/03/29 02:31:04;;;;;;;3.43;3.13;;;5.60;99.90;;;;;;5007063;28;20438;-69
2023/03/29 02:33:47;;;;;;;4.23;3.50;;;5.60;99.90;;;;;;5012618;28;20432;-69
2023/03/29 02:36:21;;;;;;;3.43;3.13;;;5.70;99.90;;;;;;5012024;28;20462;-69
2023/03/29 02:38:46;;;;;;;2.73;2.53;;;5.60;99.90;;;;;;5013101;28;21018;-69
2023/03/29 02:41:13;;;;;;;5.30;3.37;;;5.70;99.90;;;;;;5013201;28;20450;-69
2023/03/29 02:43:39;;;;;;;4.10;3.40;;;5.80;99.90;;;;;;5014403;28;20190;-69
2023/03/29 02:46:06;;;;;;;4.10;3.63;;;5.80;99.90;;;;;;5013595;28;20430;-69
2023/03/29 02:48:34;;;;;;;4.50;4.10;;;5.90;99.90;;;;;;5012886;28;20805;-69
2023/03/29 02:51:04;;;;;;;5.23;3.33;;;5.90;99.90;;;;;;5011901;28;20441;-69
2023/03/29 02:53:39;;;;;;;3.50;3.20;;;5.90;99.90;;;;;;5011610;28;20954;-69
2023/03/29 02:56:05;;;;;;;4.47;3.70;;;5.90;99.90;;;;;;5011371;28;20437;-68
2023/03/29 02:58:30;;;;;;;4.00;3.07;;;5.90;99.90;;;;;;5010504;28;20473;-68
2023/03/29 03:00:58;;;;;;;3.10;2.90;;;5.80;99.90;;;;;;5012505;28;20449;-69
2023/03/29 03:03:24;;;;;;;5.03;3.60;;;5.80;99.90;;;;;;5012317;28;20171;-69
2023/03/29 03:05:51;;;;;;;3.53;3.20;;;5.70;99.90;;;;;;5012498;28;20468;-68
2023/03/29 03:08:17;;;;;;;4.50;2.93;;;5.60;99.90;;;;;;5011554;28;20234;-68
2023/03/29 03:10:44;;;;;;;3.93;3.50;;;5.50;99.90;;;;;;5012340;28;20508;-68
2023/03/29 03:13:10;;;;;;;4.20;2.80;;;5.50;99.90;;;;;;5012301;28;20782;-68
2023/03/29 03:15:36;;;;;;;3.37;2.90;;;5.40;99.90;;;;;;5009714;28;20444;-69
2023/03/29 03:18:02;;;;;;;2.93;2.73;;;5.40;99.90;;;;;;5012012;28;20207;-69
2023/03/29 03:20:28;;;;;;;3.10;2.90;;;5.50;99.90;;;;;;5011520;28;20245;-68
2023/03/29 03:22:56;;;;;;;3.20;2.90;;;5.50;99.90;;;;;;5012378;28;20422;-68
2023/03/29 03:25:22;;;;;;;3.30;3.00;;;5.50;99.90;;;;;;5012193;28;20433;-68
2023/03/29 03:27:49;;;;;;;3.83;3.17;;;5.60;99.90;;;;;;5010551;28;20449;-68
2023/03/29 03:30:15;;;;;;;2.93;2.73;;;5.60;99.90;;;;;;5008452;28;20445;-68
2023/03/29 03:32:42;;;;;;;3.97;3.57;;;5.70;99.90;;;;;;5009664;28;20449;-69
2023/03/29 03:35:10;;;;;;;3.37;3.07;;;5.80;99.90;;;;;;5010859;28;20446;-68
2023/03/29 03:37:37;;;;;;;3.30;3.00;;;5.80;99.90;;;;;;5010800;28;20493;-69
2023/03/29 03:40:04;;;;;;;4.03;3.17;;;5.90;99.90;;;;;;5010588;28;20469;-69
2023/03/29 03:42:30;;;;;;;5.83;2.60;;;6.00;99.90;;;;;;5009550;28;20469;-69
2023/03/29 03:44:56;;;;;;;3.30;3.00;;;6.00;99.90;;;;;;5011013;28;20452;-69
2023/03/29 03:47:22;;;;;;;2.93;2.63;;;6.10;99.90;;;;;;5007261;28;20446;-69
2023/03/29 03:49:48;;;;;;;3.37;2.63;;;6.10;99.90;;;;;;5010583;28;20461;-69
2023/03/29 03:52:13;;;;;;;4.87;2.57;;;6.20;99.90;;;;;;5010451;28;20226;-69
2023/03/29 03:54:39;;;;;;;3.43;3.10;;;6.20;99.90;;;;;;5010385;28;20550;-69
2023/03/29 03:57:05;;;;;;;4.80;2.67;;;6.30;99.90;;;;;;5010862;28;20202;-69
2023/03/29 03:59:30;;;;;;;4.10;2.50;;;6.30;99.90;;;;;;5010337;28;20210;-68
2023/03/29 04:01:57;;;;;;;2.17;1.97;;;6.30;99.90;;;;;;5011900;28;20430;-68
2023/03/29 04:04:23;;;;;;;2.90;2.47;;;6.40;99.90;;;;;;5010648;28;20617;-68
2023/03/29 04:06:49;;;;;;;2.07;1.97;;;6.30;99.90;;;;;;5011360;28;20464;-69
2023/03/29 04:09:14;;;;;;;2.60;2.37;;;6.40;99.90;;;;;;5011033;28;20489;-68
2023/03/29 04:11:40;;;;;;;2.33;2.13;;;6.40;99.90;;;;;;4996407;28;20452;-68
2023/03/29 04:14:05;;;;;;;3.40;2.47;;;6.50;99.90;;;;;;5011643;28;20237;-68
2023/03/29 04:16:31;;;;;;;4.30;3.70;;;6.50;99.90;;;;;;5011699;28;20171;-69
2023/03/29 04:18:56;;;;;;;4.07;2.70;;;6.60;99.90;;;;;;5010803;28;20281;-69
2023/03/29 04:21:22;;;;;;;5.10;1.90;;;6.60;99.90;;;;;;5011024;28;20190;-68
2023/03/29 04:23:48;;;;;;;2.53;2.30;;;6.70;99.90;;;;;;5011528;28;20175;-68
2023/03/29 04:26:14;;;;;;;3.63;2.60;;;6.70;99.90;;;;;;5011722;28;20175;-69
2023/03/29 04:28:40;;;;;;;3.07;2.53;;;6.70;99.90;;;;;;5013929;28;20199;-69
2023/03/29 04:31:13;;;;;;;4.53;2.60;;;6.80;99.90;;;;;;5012371;28;20908;-69
2023/03/29 04:33:39;;;;;;;2.57;2.37;;;6.80;99.90;;;;;;5012796;28;20437;-68
2023/03/29 04:36:06;;;;;;;4.20;2.60;;;6.80;99.90;;;;;;5012068;28;20453;-69
2023/03/29 04:38:34;;;;;;;4.00;2.13;;;6.80;99.90;;;;;;5009495;28;20469;-68
2023/03/29 04:41:01;;;;;;;2.63;2.43;;;6.80;99.90;;;;;;5010820;28;20464;-69
2023/03/29 04:43:28;;;;;;;4.10;2.70;;;6.80;99.90;;;;;;5013262;28;20457;-69
2023/03/29 04:45:55;;;;;;;5.13;2.90;;;6.80;99.90;;;;;;5013345;28;20781;-69
2023/03/29 04:48:21;;;;;;;6.30;2.17;;;6.80;99.90;;;;;;5013199;28;20457;-69
2023/03/29 04:50:46;;;;;;;2.77;2.57;;;6.80;99.90;;;;;;5013321;28;20837;-68
2023/03/29 04:53:12;;;;;;;2.80;1.90;;;6.80;99.90;;;;;;5011415;28;20438;-69
2023/03/29 04:55:37;;;;;;;3.20;1.70;;;6.80;99.90;;;;;;5012649;28;20194;-69
2023/03/29 04:58:04;;;;;;;3.63;2.80;;;6.90;99.90;;;;;;5013299;28;20296;-69
2023/03/29 05:00:30;;;;;;;4.20;1.97;;;6.90;99.90;;;;;;5010004;28;20179;-69
2023/03/29 05:02:56;;;;;;;2.67;2.23;;;7.00;99.90;;;;;;5014394;28;20497;-69
2023/03/29 05:05:22;;;;;;;7.00;2.77;;;7.00;99.90;;;;;;5014561;28;20194;-69
2023/03/29 05:07:48;;;;;;;3.43;2.30;;;7.10;99.90;;;;;;5014403;28;20919;-69
2023/03/29 05:10:14;;;;;;;2.03;1.93;;;7.10;99.90;;;;;;5035359;23;20432;-70
2023/03/29 05:12:39;;;;;;;3.33;2.40;;;7.10;99.90;;;;;;5014293;28;20969;-69
2023/03/29 05:15:07;;;;;;;2.00;1.70;;;7.10;99.90;;;;;;5012805;28;20512;-69
2023/03/29 05:17:33;;;;;;;3.40;2.77;;;7.10;99.90;;;;;;5011284;28;20342;-69
2023/03/29 05:19:59;;;;;;;2.50;2.30;;;7.10;99.90;;;;;;5000899;28;20451;-70
2023/03/29 05:22:24;;;;;;;4.23;2.90;;;7.10;99.90;;;;;;4994681;28;20484;-70
2023/03/29 05:24:51;;;;;;;2.30;2.10;;;7.20;99.90;;;;;;4994425;28;20641;-69
2023/03/29 05:27:17;;;;;;;1.80;1.50;;;7.20;99.90;;;;;;4990237;28;20187;-71
2023/03/29 05:29:46;;;;;;;3.20;2.63;;;7.20;99.90;;;;;;4990825;28;20466;-70
2023/03/29 05:32:12;;;;;;;3.20;2.70;;;7.30;99.90;;;;;;4992282;28;20196;-72
2023/03/29 05:34:38;;;;;;;3.90;2.80;;;7.30;99.90;;;;;;4990109;28;20443;-72
2023/03/29 05:37:03;;;;;;;4.30;2.90;;;7.30;99.90;;;;;;4985051;28;20194;-70
2023/03/29 05:39:30;;;;;;;6.87;2.47;;;7.30;99.90;;;;;;4989242;28;20206;-70
2023/03/29 05:41:55;;;;;;;3.13;2.83;;;7.30;99.90;;;;;;4990871;28;20197;-69
2023/03/29 05:44:21;;;;;;;3.63;1.90;;;7.30;99.90;;;;;;4994212;28;20858;-69
2023/03/29 05:46:46;;;;;;;3.53;2.53;;;7.30;99.90;;;;;;4989309;28;20195;-69
2023/03/29 05:49:12;;;;;;;4.37;3.67;;;7.40;99.90;;;;;;4992429;28;20218;-69
2023/03/29 05:51:37;;;;;;;6.93;3.40;;;7.40;99.90;;;;;;4994211;28;20172;-69
2023/03/29 05:54:03;;;;;;;5.97;3.80;;;7.50;99.90;;;;;;4986425;28;20231;-69
2023/03/29 05:56:29;;;;;;;5.00;3.20;;;7.50;99.90;;;;;;4992350;28;20586;-69
2023/03/29 05:58:57;;;;;;;3.40;2.70;;;7.50;99.90;;;;;;4993022;28;20242;-69
2023/03/29 06:01:23;;;;;;;4.30;3.13;;;7.60;99.90;;;;;;4996637;28;20191;-69
2023/03/29 06:03:49;;;;;;;5.33;3.13;;;7.60;99.90;;;;;;5001663;28;20456;-70
2023/03/29 06:06:15;;;;;;;3.90;2.80;;;7.60;99.90;;;;;;5007174;28;20777;-70
2023/03/29 06:08:41;;;;;;;4.57;2.60;;;7.70;99.90;;;;;;5012185;28;20453;-70
2023/03/29 06:11:10;;;;;;;4.33;2.23;;;7.70;99.90;;;;;;5012657;28;20216;-70
2023/03/29 06:13:37;;;;;;;2.67;1.93;;;7.80;99.90;;;;;;5012564;28;20425;-70
2023/03/29 06:16:04;;;;;;;4.93;2.00;;;7.90;99.90;;;;;;5002337;28;20445;-70
2023/03/29 06:18:31;;;;;;;2.33;2.00;;;8.00;99.90;;;;;;5008952;28;20504;-70
2023/03/29 06:20:57;;;;;;;2.60;1.77;;;8.10;99.90;;;;;;5013290;28;20464;-70
2023/03/29 06:23:22;;;;;;;9.33;2.07;;;8.20;99.90;;;;;;5011390;28;20458;-70
2023/03/29 06:25:50;;;;;;;4.10;2.03;;;8.40;99.90;;;;;;4993499;28;20214;-70
2023/03/29 06:28:17;;;;;;;5.83;2.43;;;8.50;99.90;;;;;;4992765;28;20644;-70
2023/03/29 06:30:47;;;;;;;1.83;1.73;;;8.60;99.90;;;;;;4990592;28;20947;-70
2023/03/29 06:33:13;;;;;;;3.73;2.00;;;8.80;99.90;;;;;;4991737;28;20601;-70
2023/03/29 06:35:42;;;;;;;3.50;2.10;;;8.80;99.90;;;;;;4999146;28;20960;-70
2023/03/29 06:38:08;;;;;;;2.10;1.83;;;8.90;99.90;;;;;;4993246;28;20462;-70
2023/03/29 06:40:36;;;;;;;4.83;2.70;;;9.00;99.90;;;;;;4992853;28;20423;-70
2023/03/29 06:43:02;;;;;;;4.03;2.23;;;9.10;99.90;;;;;;4993355;28;20226;-70
2023/03/29 06:45:31;;;;;;;2.37;2.17;;;9.20;99.90;;;;;;4993275;28;20415;-70
2023/03/29 06:47:56;;;;;;;2.50;1.60;;;9.30;99.90;;;;;;4994919;28;20182;-70
2023/03/29 06:50:22;;;;;;;3.30;2.00;;;9.30;99.90;;;;;;4999986;28;21047;-70
2023/03/29 06:52:48;;;;;;;4.07;2.60;;;9.30;99.90;;;;;;4992165;28;20172;-70
2023/03/29 06:55:14;;;;;;;5.27;2.33;;;9.40;99.90;;;;;;5000142;28;20179;-70
2023/03/29 06:57:41;;;;;;;2.03;1.70;;;9.40;99.90;;;;;;5002623;28;20501;-70
2023/03/29 07:00:13;;;;;;;6.93;2.33;;;9.40;99.90;;;;;;5010530;28;20576;-70
2023/03/29 07:02:40;;;;;;;2.80;2.23;;;9.40;99.90;;;;;;5012676;28;20450;-70
2023/03/29 07:05:10;;;;;;;3.60;2.20;;;9.50;99.90;;;;;;5003608;28;20469;-70
2023/03/29 07:07:52;;;;;;;6.60;2.30;;;9.50;99.90;;;;;;5010126;28;20425;-70
2023/03/29 07:10:20;;;;;;;8.53;3.03;;;9.60;99.90;;;;;;5011708;28;20489;-70
2023/03/29 07:12:47;;;;;;;4.77;2.13;;;9.70;99.90;;;;;;5012327;28;20437;-70
2023/03/29 07:15:12;;;;;;;8.33;2.70;;;9.80;99.90;;;;;;5012402;28;20487;-70
2023/03/29 07:17:38;;;;;;;3.30;2.10;;;9.80;99.90;;;;;;5008474;28;20469;-70
2023/03/29 07:20:08;;;;;;;5.10;2.23;;;9.80;99.90;;;;;;5003464;28;20190;-70
2023/03/29 07:22:33;;;;;;;3.40;2.40;;;9.70;99.90;;;;;;5012565;28;20167;-70
2023/03/29 07:24:59;;;;;;;4.60;2.70;;;9.70;99.90;;;;;;5012269;28;20969;-70
2023/03/29 07:27:25;;;;;;;5.80;2.07;;;9.80;99.90;;;;;;5012308;28;20175;-70
2023/03/29 07:29:51;;;;;;;2.47;2.17;;;10.00;99.90;;;;;;5011451;28;20219;-70
2023/03/29 07:32:17;;;;;;;5.57;2.50;;;10.10;99.90;;;;;;5003650;28;20446;-70
2023/03/29 07:34:43;;;;;;;5.90;3.80;;;10.20;99.90;;;;;;5010737;28;20794;-70
2023/03/29 07:37:08;;;;;;;5.07;3.60;;;10.20;99.90;;;;;;5012128;28;20209;-70
2023/03/29 07:39:35;;;;;;;5.07;2.57;;;10.30;99.90;;;;;;5008337;28;20192;-70
2023/03/29 07:42:01;;;;;;;2.37;2.17;;;10.30;99.90;;;;;;4992598;28;20577;-70
2023/03/29 07:44:28;;;;;;;4.20;2.47;;;10.40;99.90;;;;;;4992470;28;20425;-70
2023/03/29 07:46:54;;;;;;;6.60;2.30;;;10.40;99.90;;;;;;4991454;28;20168;-70
2023/03/29 07:49:19;;;;;;;8.70;2.80;;;10.50;99.90;;;;;;4999786;28;20916;-70
2023/03/29 07:51:45;;;;;;;2.03;1.93;;;10.50;99.90;;;;;;5010963;28;20542;-70
2023/03/29 07:54:11;;;;;;;3.93;2.43;;;10.50;99.90;;;;;;5012143;28;20206;-70
2023/03/29 07:56:37;;;;;;;9.53;2.80;;;10.50;99.90;;;;;;5011960;28;20213;-70
2023/03/29 07:59:02;;;;;;;2.70;2.27;;;10.50;99.90;;;;;;5011057;28;20869;-70
2023/03/29 08:01:28;;;;;;;3.27;2.37;;;10.50;99.90;;;;;;5011894;28;20525;-70
2023/03/29 08:03:53;;;;;;;6.33;2.30;;;10.60;99.90;;;;;;5009183;28;20190;-70
2023/03/29 08:06:19;;;;;;;4.57;3.13;;;10.70;99.90;;;;;;5004226;28;20195;-70
2023/03/29 08:08:45;;;;;;;10.77;2.90;;;10.80;99.90;;;;;;4995231;28;20242;-70
2023/03/29 08:11:11;;;;;;;5.67;2.50;;;11.00;99.90;;;;;;4996038;28;21033;-71
2023/03/29 08:13:36;;;;;;;5.43;2.10;;;11.10;99.90;;;;;;4995995;28;20578;-70
2023/03/29 08:16:02;;;;;;;2.07;1.83;;;11.20;99.90;;;;;;4996070;28;20187;-70
2023/03/29 08:18:27;;;;;;;2.67;2.07;;;11.40;99.90;;;;;;4987290;28;20203;-70
2023/03/29 08:20:53;;;;;;;2.20;2.00;;;11.30;99.90;;;;;;5007365;28;20245;-70
2023/03/29 08:23:18;;;;;;;6.03;2.03;;;11.30;99.90;;;;;;5015491;28;20176;-70
2023/03/29 08:25:45;;;;;;;1.80;1.60;;;11.30;99.90;;;;;;5015345;28;20560;-70
2023/03/29 08:28:12;;;;;;;2.40;1.80;;;11.30;99.90;;;;;;5014803;28;20167;-71
2023/03/29 08:30:37;;;;;;;2.93;1.97;;;11.20;99.90;;;;;;5015281;28;20435;-70
2023/03/29 08:33:03;;;;;;;3.17;1.93;;;11.30;99.90;;;;;;5015281;28;20520;-70
2023/03/29 08:35:28;;;;;;;3.60;2.50;;;11.40;99.90;;;;;;5012057;28;20648;-70
2023/03/29 08:37:54;;;;;;;3.17;2.70;;;11.30;99.90;;;;;;5007221;28;20224;-70
2023/03/29 08:40:23;;;;;;;8.17;4.10;;;11.20;99.90;;;;;;4996181;28;20199;-70
2023/03/29 08:43:10;;;;;;;2.60;1.73;;;11.20;99.90;;;;;;5011762;28;20171;-70
2023/03/29 08:45:50;;;;;;;2.43;1.90;;;11.20;99.90;;;;;;4996552;28;20465;-70
2023/03/29 08:48:16;;;;;;;3.30;2.00;;;11.20;99.90;;;;;;4994557;28;20777;-70
2023/03/29 08:51:08;;;;;;;3.50;2.10;;;11.30;99.90;;;;;;4995404;28;20466;-70
2023/03/29 08:53:49;;;;;;;3.10;2.13;;;11.40;99.90;;;;;;5003437;28;20194;-70
2023/03/29 08:56:18;;;;;;;2.73;2.50;;;11.30;99.90;;;;;;5013756;28;20509;-70
2023/03/29 08:58:45;;;;;;;2.27;2.00;;;11.30;99.90;;;;;;4994468;28;20462;-70
2023/03/29 09:01:11;;;;;;;1.80;1.70;;;11.30;99.90;;;;;;4995151;28;20458;-70
2023/03/29 09:03:47;;;;;;;3.70;2.13;;;11.20;99.90;;;;;;4995023;28;20509;-70
2023/03/29 09:06:13;;;;;;;2.90;1.80;;;11.30;99.90;;;;;;4995145;28;20853;-70
2023/03/29 09:08:45;;;;;;;3.17;2.20;;;11.30;99.90;;;;;;4994634;28;20474;-70
2023/03/29 09:11:14;;;;;;;2.40;1.87;;;11.50;99.90;;;;;;5006198;28;20460;-70
2023/03/29 09:13:59;;;;;;;2.80;2.43;;;11.60;99.90;;;;;;5009460;28;20932;-70
2023/03/29 09:16:40;;;;;;;2.77;2.27;;;11.90;99.90;;;;;;4994322;28;20466;-70
2023/03/29 09:19:27;;;;;;;4.27;2.70;;;11.90;99.90;;;;;;5002158;28;20473;-70
2023/03/29 09:22:05;;;;;;;2.47;2.27;;;12.10;99.90;;;;;;4994823;28;20774;-70
2023/03/29 09:24:55;;;;;;;2.47;2.00;;;12.10;99.90;;;;;;4993604;28;20468;-70
2023/03/29 09:27:27;;;;;;;2.33;1.90;;;12.10;99.90;;;;;;5006043;28;20429;-70
2023/03/29 09:29:56;;;;;;;3.60;2.33;;;12.20;99.90;;;;;;5013523;28;20441;-71
2023/03/29 09:32:30;;;;;;;5.40;1.90;;;12.30;99.90;;;;;;5013036;28;20808;-70
2023/03/29 09:35:17;;;;;;;2.70;2.50;;;12.40;99.90;;;;;;5014134;28;20432;-70
2023/03/29 09:37:43;;;;;;;3.87;2.30;;;12.40;99.90;;;;;;5014105;28;20465;-70
2023/03/29 09:40:33;;;;;;;2.77;2.30;;;12.60;99.90;;;;;;5013206;28;20438;-70
2023/03/29 09:43:03;;;;;;;2.50;2.30;;;12.70;99.90;;;;;;5005725;28;20425;-70
2023/03/29 09:45:29;;;;;;;4.50;1.90;;;12.90;99.90;;;;;;5013680;28;20942;-70
2023/03/29 09:48:01;;;;;;;4.93;3.33;;;13.00;99.90;;;;;;5008771;28;20426;-70
2023/03/29 09:50:42;;;;;;;7.23;2.60;;;13.10;99.90;;;;;;4993558;28;20430;-70
2023/03/29 09:53:08;;;;;;;3.93;2.90;;;13.40;99.90;;;;;;4994223;28;20423;-71
2023/03/29 09:55:36;;;;;;;2.83;2.17;;;13.60;99.90;;;;;;4994038;28;20923;-70
2023/03/29 09:58:19;;;;;;;4.57;2.40;;;13.70;99.90;;;;;;4997596;28;20461;-70
2023/03/29 10:00:47;;;;;;;3.43;2.30;;;13.80;99.90;;;;;;5005559;28;20798;-70
2023/03/29 10:03:23;;;;;;;4.00;2.10;;;13.90;99.80;;;;;;5013558;28;20425;-70
2023/03/29 10:05:52;;;;;;;4.50;2.13;;;14.00;99.90;;;;;;5013617;28;20792;-70
2023/03/29 10:08:47;;;;;;;1.87;1.77;;;14.10;99.30;;;;;;5012418;28;20448;-70
2023/03/29 10:11:22;;;;;;;2.63;2.43;;;14.30;99.20;;;;;;5002686;28;20460;-70
2023/03/29 10:13:53;;;;;;;5.10;3.33;;;14.70;97.70;;;;;;5007491;28;20477;-70
2023/03/29 10:16:20;;;;;;;3.53;3.23;;;15.10;95.50;;;;;;4996345;28;20982;-70
2023/03/29 10:18:46;;;;;;;3.30;2.67;;;15.30;94.50;;;;;;4994843;28;20462;-70
2023/03/29 10:21:19;;;;;;;3.50;2.20;;;15.10;96.00;;;;;;5000715;28;20437;-70
2023/03/29 10:23:46;;;;;;;3.10;2.00;;;15.10;95.00;;;;;;4993526;28;20198;-69
2023/03/29 10:26:33;;;;;;;3.33;2.20;;;15.20;94.90;;;;;;4993235;28;20442;-70
2023/03/29 10:29:01;;;;;;;5.10;2.20;;;15.10;94.40;;;;;;4992788;28;20442;-70
2023/03/29 10:31:31;;;;;;;6.23;2.00;;;15.20;94.50;;;;;;4999314;28;20512;-70
2023/03/29 10:34:01;;;;;;;2.77;2.57;;;16.10;93.70;;;;;;5005378;28;20429;-70
2023/03/29 10:36:27;;;;;;;5.53;3.30;;;17.10;90.00;;;;;;5012949;28;20422;-70
2023/03/29 10:38:57;;;;;;;3.40;3.07;;;18.00;88.10;;;;;;5012009;28;20469;-70
2023/03/29 10:41:25;;;;;;;3.50;2.60;;;19.60;79.10;;;;;;5012973;28;20781;-70
2023/03/29 10:43:51;;;;;;;3.83;2.30;;;20.60;69.60;;;;;;5012917;28;20422;-70
2023/03/29 10:46:38;;;;;;;2.50;2.30;;;21.10;66.30;;;;;;5008453;28;20425;-70
2023/03/29 10:49:14;;;;;;;4.63;2.87;;;21.40;61.40;;;;;;4993982;28;20189;-70
2023/03/29 10:51:44;;;;;;;3.70;3.07;;;21.20;62.30;;;;;;4993112;28;20427;-70
2023/03/29 10:54:13;;;;;;;2.60;2.40;;;21.20;60.50;;;;;;4992984;28;20419;-70
2023/03/29 10:56:42;;;;;;;3.63;2.20;;;20.20;59.90;;;;;;4992995;28;20418;-70
2023/03/29 10:59:15;;;;;;;2.60;2.40;;;19.30;62.60;;;;;;4990804;28;20469;-70
2023/03/29 11:02:02;;;;;;;4.40;2.53;;;18.80;64.70;;;;;;4992912;28;20931;-70
2023/03/29 11:04:42;;;;;;;3.20;2.90;;;18.50;67.20;;;;;;4991417;28;20430;-70
2023/03/29 11:07:34;;;;;;;5.63;4.43;;;18.60;68.00;;;;;;4992408;28;20437;-70
2023/03/29 11:10:18;;;;;;;2.63;2.10;;;18.40;68.60;;;;;;5004932;28;20946;-70
2023/03/29 11:13:10;;;;;;;3.77;2.20;;;18.00;70.10;;;;;;5009425;28;20426;-70
2023/03/29 11:16:13;;;;;;;2.43;2.20;;;18.20;71.90;;;;;;5000184;28;20441;-70
2023/03/29 11:19:12;;;;;;;3.07;2.80;;;17.80;71.60;;;;;;5009446;28;20464;-70
2023/03/29 11:21:50;;;;;;;2.50;2.30;;;17.60;72.80;;;;;;5012412;28;20421;-70
2023/03/29 11:24:34;;;;;;;3.10;2.80;;;17.90;74.80;;;;;;5007186;28;20566;-70
2023/03/29 11:27:24;;;;;;;3.00;2.60;;;17.80;72.60;;;;;;4991940;28;20566;-70
2023/03/29 11:30:08;;;;;;;3.90;2.57;;;18.50;72.40;;;;;;5002884;28;20437;-71
2023/03/29 11:32:49;;;;;;;4.23;2.30;;;20.90;68.00;;;;;;5010901;28;20866;-70
2023/03/29 11:35:38;;;;;;;2.90;2.20;;;21.50;60.50;;;;;;5012276;28;20731;-70
2023/03/29 11:38:20;;;;;;;3.17;2.07;;;21.40;59.50;;;;;;5014580;28;20445;-70
2023/03/29 11:41:09;;;;;;;2.67;2.40;;;21.00;61.00;;;;;;5016294;28;20418;-70
2023/03/29 11:43:44;;;;;;;3.13;2.23;;;20.90;60.90;;;;;;5012420;28;20526;-70
2023/03/29 11:46:15;;;;;;;2.70;1.60;;;20.80;59.80;;;;;;5007996;28;20857;-70
2023/03/29 11:48:57;;;;;;;2.70;1.90;;;19.70;61.20;;;;;;5015289;28;20437;-70
2023/03/29 11:51:53;;;;;;;2.57;2.20;;;20.00;60.60;;;;;;5015955;28;20799;-70
2023/03/29 11:54:29;;;;;;;1.90;1.67;;;20.20;58.30;;;;;;5016117;28;20421;-70
2023/03/29 11:57:00;;;;;;;3.40;1.70;;;19.80;58.10;;;;;;5015947;28;20421;-70
2023/03/29 11:59:36;;;;;;;2.10;2.00;;;19.40;58.10;;;;;;5015261;28;20445;-70
2023/03/29 12:02:18;;;;;;;2.47;1.90;;;19.20;58.40;;;;;;5005420;28;20434;-70
2023/03/29 12:04:49;;;;;;;2.53;2.33;;;18.80;57.60;;;;;;5014674;28;20422;-70
2023/03/29 12:07:34;;;;;;;2.10;1.90;;;18.30;58.90;;;;;;5015736;28;20878;-70
2023/03/29 12:10:15;;;;;;;2.30;1.60;;;18.20;59.90;;;;;;5014675;28;20449;-70
2023/03/29 12:12:54;;;;;;;2.57;1.93;;;17.80;61.60;;;;;;5010036;28;21110;-70
2023/03/29 12:15:23;;;;;;;4.13;2.33;;;17.40;63.30;;;;;;5011112;28;20421;-70
2023/03/29 12:18:13;;;;;;;2.53;1.90;;;17.20;66.30;;;;;;5015394;28;20550;-70
2023/03/29 12:20:40;;;;;;;2.00;1.90;;;17.20;66.40;;;;;;5015481;28;20823;-70
2023/03/29 12:23:09;;;;;;;3.30;2.00;;;17.70;67.40;;;;;;5015485;28;20475;-70
2023/03/29 12:26:01;;;;;;;1.97;1.80;;;18.20;66.00;;;;;;5000080;28;20431;-70
2023/03/29 12:28:44;;;;;;;2.57;2.03;;;17.90;65.00;;;;;;5006302;28;20477;-70
2023/03/29 12:31:33;;;;;;;1.80;1.67;;;17.80;64.80;;;;;;5014997;28;20432;-70
2023/03/29 12:34:38;;;;;;;3.03;2.73;;;17.60;64.40;;;;;;5015279;28;20422;-70
2023/03/29 12:37:29;;;;;;;2.50;2.10;;;17.40;64.00;;;;;;5008774;28;20438;-70
2023/03/29 12:40:03;;;;;;;2.00;1.80;;;17.20;65.50;;;;;;4995380;28;20982;-70
2023/03/29 12:42:29;;;;;;;1.67;1.57;;;16.90;67.00;;;;;;4995636;28;20465;-70
2023/03/29 12:44:59;;;;;;;4.10;2.20;;;17.00;68.70;;;;;;4995493;28;20493;-70
2023/03/29 12:47:31;;;;;;;4.60;2.70;;;17.20;70.30;;;;;;4995396;28;20183;-70
2023/03/29 12:49:58;;;;;;;2.67;2.47;;;17.30;69.50;;;;;;4994554;28;20577;-70
2023/03/29 12:52:26;;;;;;;1.80;1.70;;;17.10;70.30;;;;;;5001928;28;20843;-70
2023/03/29 12:55:00;;;;;;;2.80;1.73;;;17.80;68.30;;;;;;5002525;28;20429;-70
2023/03/29 12:57:43;;;;;;;4.00;1.90;;;18.60;65.80;;;;;;5006551;28;20457;-70
2023/03/29 13:00:18;;;;;;;3.10;2.40;;;18.50;65.50;;;;;;5008672;28;20538;-70
2023/03/29 13:02:44;;;;;;;1.60;1.50;;;17.90;68.10;;;;;;5005157;28;20418;-70
2023/03/29 13:05:28;;;;;;;1.90;1.80;;;17.40;71.50;;;;;;5014653;28;20417;-70
2023/03/29 13:07:54;;;;;;;2.67;2.47;;;17.10;73.70;;;;;;5014664;28;20426;-70
2023/03/29 13:10:40;;;;;;;6.50;1.80;;;16.80;75.00;;;;;;5013832;28;20464;-70
2023/03/29 13:13:15;;;;;;;2.90;2.60;;;16.60;77.20;;;;;;5014380;28;20454;-70